Alabama Hills, California
Current Conditions -  °F | °C
As of 10:56 AM on Friday 24 Oct 2014 (Local Time) from KBIH Reporting Station
Clear Clear  
Wind Chill: 68°   Ceiling: Unl
Heat Index: 68°   Visibility: 10mi
Dew Point: 25°   Wind: 0mph
Humidity: 20%   Direction: NA
Pressure: 30.12"   Gusts: NA
Location:  36.6126°N, 118.162°W
Report Text: KBIH 241756Z AUTO 00000KT 10SM CLR 20/M04 A3012 RMK AO2 SLP172 T02001039 10200 20017 50001
Loading
Personal Weather Stations






























Interactive Weather Map
Tropical Storm Tracking
New forecast layout! Learn more

10-Day Weather Forecast

Advertisements
Track Severe Weather on mobile